sensor_id;sensor_type;location;lat;lon;timestamp;P1;durP1;ratioP1;P2;durP2;ratioP2
55756;SDS011;41676;44.610;44.078;2023-04-24T00:02:54;6.25;;;3.55;;
55756;SDS011;41676;44.610;44.078;2023-04-24T00:07:57;4.57;;;3.13;;
55756;SDS011;41676;44.610;44.078;2023-04-24T00:12:57;5.68;;;3.20;;
55756;SDS011;41676;44.610;44.078;2023-04-24T00:17:58;6.50;;;3.28;;
55756;SDS011;41676;44.610;44.078;2023-04-24T00:23:01;3.63;;;3.00;;
55756;SDS011;41676;44.610;44.078;2023-04-24T00:28:02;4.22;;;2.78;;
55756;SDS011;41676;44.610;44.078;2023-04-24T00:33:02;7.55;;;2.70;;
55756;SDS011;41676;44.610;44.078;2023-04-24T00:38:03;5.13;;;2.38;;
55756;SDS011;41676;44.610;44.078;2023-04-24T00:43:04;4.03;;;2.53;;
55756;SDS011;41676;44.610;44.078;2023-04-24T00:48:05;3.88;;;2.58;;
55756;SDS011;41676;44.610;44.078;2023-04-24T00:53:07;3.97;;;2.47;;
55756;SDS011;41676;44.610;44.078;2023-04-24T00:58:08;3.42;;;2.30;;
55756;SDS011;41676;44.610;44.078;2023-04-24T01:03:09;3.13;;;2.47;;
55756;SDS011;41676;44.610;44.078;2023-04-24T01:08:11;4.60;;;2.40;;
55756;SDS011;41676;44.610;44.078;2023-04-24T01:13:12;3.40;;;2.30;;
55756;SDS011;41676;44.610;44.078;2023-04-24T01:18:14;3.83;;;2.33;;
55756;SDS011;41676;44.610;44.078;2023-04-24T01:23:15;3.35;;;2.30;;
55756;SDS011;41676;44.610;44.078;2023-04-24T01:28:17;4.40;;;2.35;;
55756;SDS011;41676;44.610;44.078;2023-04-24T01:33:18;3.92;;;2.28;;
55756;SDS011;41676;44.610;44.078;2023-04-24T01:38:22;4.17;;;2.13;;
55756;SDS011;41676;44.610;44.078;2023-04-24T01:43:22;4.55;;;2.70;;
55756;SDS011;41676;44.610;44.078;2023-04-24T01:48:24;3.45;;;2.47;;
55756;SDS011;41676;44.610;44.078;2023-04-24T01:53:25;4.68;;;2.75;;
55756;SDS011;41676;44.610;44.078;2023-04-24T01:58:26;3.78;;;2.55;;
55756;SDS011;41676;44.610;44.078;2023-04-24T02:03:27;4.00;;;2.83;;
55756;SDS011;41676;44.610;44.078;2023-04-24T02:08:28;4.57;;;3.10;;
55756;SDS011;41676;44.610;44.078;2023-04-24T02:13:29;4.90;;;3.25;;
55756;SDS011;41676;44.610;44.078;2023-04-24T02:18:29;5.57;;;3.45;;
55756;SDS011;41676;44.610;44.078;2023-04-24T02:23:30;5.10;;;3.13;;
55756;SDS011;41676;44.610;44.078;2023-04-24T02:28:31;4.90;;;3.55;;
55756;SDS011;41676;44.610;44.078;2023-04-24T02:33:32;5.07;;;3.30;;
55756;SDS011;41676;44.610;44.078;2023-04-24T02:38:32;4.75;;;3.05;;
55756;SDS011;41676;44.610;44.078;2023-04-24T02:43:33;7.47;;;3.65;;
55756;SDS011;41676;44.610;44.078;2023-04-24T02:48:34;4.43;;;3.53;;
55756;SDS011;41676;44.610;44.078;2023-04-24T02:53:35;5.28;;;3.92;;
55756;SDS011;41676;44.610;44.078;2023-04-24T02:58:36;8.98;;;3.92;;
55756;SDS011;41676;44.610;44.078;2023-04-24T03:03:37;5.65;;;3.83;;
55756;SDS011;41676;44.610;44.078;2023-04-24T03:08:38;5.35;;;3.65;;
55756;SDS011;41676;44.610;44.078;2023-04-24T03:13:39;6.60;;;3.78;;
55756;SDS011;41676;44.610;44.078;2023-04-24T03:18:40;4.90;;;3.75;;
55756;SDS011;41676;44.610;44.078;2023-04-24T03:23:41;5.70;;;3.50;;
55756;SDS011;41676;44.610;44.078;2023-04-24T03:28:41;7.53;;;3.53;;
55756;SDS011;41676;44.610;44.078;2023-04-24T03:33:42;13.88;;;3.35;;
55756;SDS011;41676;44.610;44.078;2023-04-24T03:38:43;9.25;;;2.97;;
55756;SDS011;41676;44.610;44.078;2023-04-24T03:43:44;7.82;;;2.75;;
55756;SDS011;41676;44.610;44.078;2023-04-24T03:48:45;6.40;;;2.97;;
55756;SDS011;41676;44.610;44.078;2023-04-24T03:53:45;8.23;;;3.10;;
55756;SDS011;41676;44.610;44.078;2023-04-24T03:58:46;4.05;;;2.50;;
55756;SDS011;41676;44.610;44.078;2023-04-24T04:03:47;4.35;;;2.60;;
55756;SDS011;41676;44.610;44.078;2023-04-24T04:08:48;5.45;;;2.90;;
55756;SDS011;41676;44.610;44.078;2023-04-24T04:13:48;4.95;;;2.47;;
55756;SDS011;41676;44.610;44.078;2023-04-24T04:18:50;5.18;;;2.50;;
55756;SDS011;41676;44.610;44.078;2023-04-24T04:23:51;6.07;;;2.47;;
55756;SDS011;41676;44.610;44.078;2023-04-24T04:28:52;10.93;;;3.00;;
55756;SDS011;41676;44.610;44.078;2023-04-24T04:33:53;3.33;;;2.10;;
55756;SDS011;41676;44.610;44.078;2023-04-24T04:38:54;4.05;;;2.78;;
55756;SDS011;41676;44.610;44.078;2023-04-24T04:43:54;3.47;;;2.65;;
55756;SDS011;41676;44.610;44.078;2023-04-24T04:48:59;3.97;;;2.75;;
55756;SDS011;41676;44.610;44.078;2023-04-24T04:54:01;6.20;;;3.05;;
55756;SDS011;41676;44.610;44.078;2023-04-24T04:59:02;4.60;;;2.60;;
55756;SDS011;41676;44.610;44.078;2023-04-24T05:04:03;4.15;;;2.55;;
55756;SDS011;41676;44.610;44.078;2023-04-24T05:09:04;5.05;;;2.55;;
55756;SDS011;41676;44.610;44.078;2023-04-24T05:14:04;7.97;;;4.72;;
55756;SDS011;41676;44.610;44.078;2023-04-24T05:19:05;9.65;;;7.05;;
55756;SDS011;41676;44.610;44.078;2023-04-24T05:24:06;10.23;;;6.22;;
55756;SDS011;41676;44.610;44.078;2023-04-24T05:29:07;9.27;;;6.65;;
55756;SDS011;41676;44.610;44.078;2023-04-24T05:34:08;7.78;;;5.63;;
55756;SDS011;41676;44.610;44.078;2023-04-24T05:39:09;8.63;;;4.68;;
55756;SDS011;41676;44.610;44.078;2023-04-24T05:44:10;11.35;;;4.30;;
55756;SDS011;41676;44.610;44.078;2023-04-24T05:49:11;11.10;;;4.38;;
55756;SDS011;41676;44.610;44.078;2023-04-24T05:54:12;6.28;;;3.88;;
55756;SDS011;41676;44.610;44.078;2023-04-24T05:59:13;5.15;;;3.80;;
55756;SDS011;41676;44.610;44.078;2023-04-24T06:04:13;5.95;;;3.15;;
55756;SDS011;41676;44.610;44.078;2023-04-24T06:09:14;4.97;;;3.00;;
55756;SDS011;41676;44.610;44.078;2023-04-24T06:14:17;4.60;;;3.30;;
55756;SDS011;41676;44.610;44.078;2023-04-24T06:19:17;6.15;;;3.03;;
55756;SDS011;41676;44.610;44.078;2023-04-24T06:24:18;5.88;;;3.25;;
55756;SDS011;41676;44.610;44.078;2023-04-24T06:29:19;6.25;;;3.70;;
55756;SDS011;41676;44.610;44.078;2023-04-24T06:34:20;5.15;;;3.65;;
55756;SDS011;41676;44.610;44.078;2023-04-24T06:39:20;6.30;;;3.97;;
55756;SDS011;41676;44.610;44.078;2023-04-24T06:44:21;6.90;;;4.50;;
55756;SDS011;41676;44.610;44.078;2023-04-24T06:49:22;9.23;;;4.95;;
55756;SDS011;41676;44.610;44.078;2023-04-24T06:54:23;6.10;;;4.38;;
55756;SDS011;41676;44.610;44.078;2023-04-24T06:59:24;7.03;;;4.35;;
55756;SDS011;41676;44.610;44.078;2023-04-24T07:04:25;6.50;;;3.90;;
55756;SDS011;41676;44.610;44.078;2023-04-24T07:09:26;6.70;;;3.92;;
55756;SDS011;41676;44.610;44.078;2023-04-24T07:14:27;6.13;;;3.25;;
55756;SDS011;41676;44.610;44.078;2023-04-24T07:19:27;4.88;;;2.90;;
55756;SDS011;41676;44.610;44.078;2023-04-24T07:24:28;9.18;;;3.05;;
55756;SDS011;41676;44.610;44.078;2023-04-24T07:29:29;4.53;;;3.00;;
55756;SDS011;41676;44.610;44.078;2023-04-24T07:34:30;7.90;;;3.42;;
55756;SDS011;41676;44.610;44.078;2023-04-24T07:39:31;5.97;;;3.20;;
55756;SDS011;41676;44.610;44.078;2023-04-24T07:44:32;5.03;;;3.20;;
55756;SDS011;41676;44.610;44.078;2023-04-24T07:49:33;4.05;;;2.75;;
55756;SDS011;41676;44.610;44.078;2023-04-24T07:54:35;5.07;;;3.13;;
55756;SDS011;41676;44.610;44.078;2023-04-24T07:59:37;10.90;;;3.10;;
55756;SDS011;41676;44.610;44.078;2023-04-24T08:04:37;7.47;;;3.35;;
55756;SDS011;41676;44.610;44.078;2023-04-24T08:09:38;5.00;;;2.80;;
55756;SDS011;41676;44.610;44.078;2023-04-24T08:14:39;10.15;;;3.40;;
55756;SDS011;41676;44.610;44.078;2023-04-24T08:19:40;4.05;;;2.60;;
55756;SDS011;41676;44.610;44.078;2023-04-24T08:24:48;5.68;;;2.38;;
55756;SDS011;41676;44.610;44.078;2023-04-24T08:29:49;6.22;;;2.90;;
55756;SDS011;41676;44.610;44.078;2023-04-24T08:34:50;5.15;;;2.47;;
55756;SDS011;41676;44.610;44.078;2023-04-24T08:39:52;3.75;;;2.20;;
55756;SDS011;41676;44.610;44.078;2023-04-24T08:44:53;4.82;;;2.58;;
55756;SDS011;41676;44.610;44.078;2023-04-24T08:49:55;4.32;;;2.13;;
55756;SDS011;41676;44.610;44.078;2023-04-24T08:54:56;6.45;;;2.22;;
55756;SDS011;41676;44.610;44.078;2023-04-24T08:59:58;4.97;;;2.35;;
55756;SDS011;41676;44.610;44.078;2023-04-24T09:05:00;3.58;;;2.30;;
55756;SDS011;41676;44.610;44.078;2023-04-24T09:10:03;7.35;;;2.70;;
55756;SDS011;41676;44.610;44.078;2023-04-24T09:15:04;4.63;;;2.75;;
55756;SDS011;41676;44.610;44.078;2023-04-24T09:20:08;10.15;;;2.60;;
55756;SDS011;41676;44.610;44.078;2023-04-24T09:25:09;3.92;;;2.53;;
55756;SDS011;41676;44.610;44.078;2023-04-24T09:30:12;7.68;;;2.42;;
55756;SDS011;41676;44.610;44.078;2023-04-24T09:35:14;8.68;;;2.58;;
55756;SDS011;41676;44.610;44.078;2023-04-24T09:40:16;11.43;;;2.30;;
55756;SDS011;41676;44.610;44.078;2023-04-24T09:45:21;4.30;;;2.30;;
55756;SDS011;41676;44.610;44.078;2023-04-24T09:50:21;3.78;;;2.40;;
55756;SDS011;41676;44.610;44.078;2023-04-24T09:55:23;5.35;;;2.45;;
55756;SDS011;41676;44.610;44.078;2023-04-24T10:00:25;3.20;;;1.98;;
55756;SDS011;41676;44.610;44.078;2023-04-24T10:05:31;3.78;;;2.30;;
55756;SDS011;41676;44.610;44.078;2023-04-24T10:10:33;3.47;;;2.00;;
55756;SDS011;41676;44.610;44.078;2023-04-24T10:15:38;8.07;;;2.63;;
55756;SDS011;41676;44.610;44.078;2023-04-24T10:20:40;4.68;;;2.40;;
55756;SDS011;41676;44.610;44.078;2023-04-24T10:25:41;9.13;;;2.25;;
55756;SDS011;41676;44.610;44.078;2023-04-24T10:30:42;5.25;;;2.70;;
55756;SDS011;41676;44.610;44.078;2023-04-24T10:35:44;12.48;;;2.38;;
55756;SDS011;41676;44.610;44.078;2023-04-24T10:40:49;9.68;;;2.53;;
55756;SDS011;41676;44.610;44.078;2023-04-24T10:46:22;5.90;;;1.90;;
55756;SDS011;41676;44.610;44.078;2023-04-24T10:51:21;8.57;;;2.65;;
55756;SDS011;41676;44.610;44.078;2023-04-24T10:56:22;10.23;;;2.60;;
55756;SDS011;41676;44.610;44.078;2023-04-24T11:01:24;6.20;;;2.20;;
55756;SDS011;41676;44.610;44.078;2023-04-24T11:06:33;4.80;;;2.40;;
55756;SDS011;41676;44.610;44.078;2023-04-24T11:11:36;13.77;;;2.55;;
55756;SDS011;41676;44.610;44.078;2023-04-24T11:16:52;5.05;;;1.92;;
55756;SDS011;41676;44.610;44.078;2023-04-24T11:37:28;5.53;;;2.50;;
55756;SDS011;41676;44.610;44.078;2023-04-24T11:42:40;7.35;;;2.60;;
55756;SDS011;41676;44.610;44.078;2023-04-24T11:47:43;8.27;;;2.60;;
55756;SDS011;41676;44.610;44.078;2023-04-24T11:52:48;8.02;;;2.85;;
55756;SDS011;41676;44.610;44.078;2023-04-24T11:57:51;7.15;;;2.78;;
55756;SDS011;41676;44.610;44.078;2023-04-24T12:03:09;12.60;;;3.00;;
55756;SDS011;41676;44.610;44.078;2023-04-24T12:08:11;8.68;;;2.35;;
55756;SDS011;41676;44.610;44.078;2023-04-24T12:13:12;7.47;;;2.40;;
55756;SDS011;41676;44.610;44.078;2023-04-24T12:18:13;13.05;;;2.40;;
55756;SDS011;41676;44.610;44.078;2023-04-24T12:28:36;11.50;;;2.28;;
55756;SDS011;41676;44.610;44.078;2023-04-24T12:33:38;10.00;;;2.20;;
55756;SDS011;41676;44.610;44.078;2023-04-24T12:38:39;11.57;;;2.70;;
55756;SDS011;41676;44.610;44.078;2023-04-24T12:43:52;13.07;;;2.13;;
55756;SDS011;41676;44.610;44.078;2023-04-24T12:48:55;11.10;;;4.50;;
55756;SDS011;41676;44.610;44.078;2023-04-24T12:53:55;13.27;;;2.13;;
55756;SDS011;41676;44.610;44.078;2023-04-24T12:58:56;8.63;;;2.10;;
55756;SDS011;41676;44.610;44.078;2023-04-24T13:03:57;9.23;;;2.10;;
55756;SDS011;41676;44.610;44.078;2023-04-24T13:08:58;19.63;;;2.60;;
55756;SDS011;41676;44.610;44.078;2023-04-24T13:13:59;13.93;;;2.10;;
55756;SDS011;41676;44.610;44.078;2023-04-24T13:19:01;14.73;;;2.33;;
55756;SDS011;41676;44.610;44.078;2023-04-24T13:24:01;12.80;;;2.30;;
55756;SDS011;41676;44.610;44.078;2023-04-24T13:29:04;14.80;;;2.17;;
55756;SDS011;41676;44.610;44.078;2023-04-24T13:34:05;12.35;;;1.65;;
55756;SDS011;41676;44.610;44.078;2023-04-24T13:39:06;15.88;;;2.70;;
55756;SDS011;41676;44.610;44.078;2023-04-24T13:44:07;8.38;;;1.80;;
55756;SDS011;41676;44.610;44.078;2023-04-24T13:49:08;8.88;;;1.90;;
55756;SDS011;41676;44.610;44.078;2023-04-24T13:54:09;12.93;;;2.63;;
55756;SDS011;41676;44.610;44.078;2023-04-24T13:59:11;13.90;;;1.80;;
55756;SDS011;41676;44.610;44.078;2023-04-24T14:04:12;9.07;;;1.50;;
55756;SDS011;41676;44.610;44.078;2023-04-24T14:09:13;8.95;;;1.77;;
55756;SDS011;41676;44.610;44.078;2023-04-24T14:14:14;16.17;;;2.30;;
55756;SDS011;41676;44.610;44.078;2023-04-24T14:19:16;14.52;;;2.42;;
55756;SDS011;41676;44.610;44.078;2023-04-24T14:24:16;12.63;;;2.53;;
55756;SDS011;41676;44.610;44.078;2023-04-24T14:29:17;29.42;;;12.73;;
55756;SDS011;41676;44.610;44.078;2023-04-24T14:34:19;76.15;;;37.28;;
55756;SDS011;41676;44.610;44.078;2023-04-24T14:39:20;32.83;;;10.63;;
55756;SDS011;41676;44.610;44.078;2023-04-24T14:44:21;15.63;;;4.05;;
55756;SDS011;41676;44.610;44.078;2023-04-24T14:49:22;18.38;;;3.40;;
55756;SDS011;41676;44.610;44.078;2023-04-24T14:54:23;17.23;;;2.25;;
55756;SDS011;41676;44.610;44.078;2023-04-24T14:59:25;43.35;;;2.80;;
55756;SDS011;41676;44.610;44.078;2023-04-24T15:04:26;23.23;;;2.90;;
55756;SDS011;41676;44.610;44.078;2023-04-24T15:09:28;18.95;;;2.55;;
55756;SDS011;41676;44.610;44.078;2023-04-24T15:14:29;22.00;;;2.15;;
55756;SDS011;41676;44.610;44.078;2023-04-24T15:19:30;45.10;;;11.05;;
55756;SDS011;41676;44.610;44.078;2023-04-24T15:24:31;26.60;;;5.88;;
55756;SDS011;41676;44.610;44.078;2023-04-24T15:29:32;26.60;;;5.18;;
55756;SDS011;41676;44.610;44.078;2023-04-24T15:34:33;22.60;;;6.35;;
55756;SDS011;41676;44.610;44.078;2023-04-24T15:39:34;28.58;;;6.90;;
55756;SDS011;41676;44.610;44.078;2023-04-24T15:44:35;32.63;;;6.57;;
55756;SDS011;41676;44.610;44.078;2023-04-24T15:49:36;39.42;;;5.85;;
55756;SDS011;41676;44.610;44.078;2023-04-24T15:54:37;68.95;;;11.45;;
55756;SDS011;41676;44.610;44.078;2023-04-24T15:59:38;54.05;;;9.88;;
55756;SDS011;41676;44.610;44.078;2023-04-24T16:04:39;28.80;;;6.28;;
55756;SDS011;41676;44.610;44.078;2023-04-24T16:09:40;40.20;;;6.82;;
55756;SDS011;41676;44.610;44.078;2023-04-24T16:14:41;35.72;;;5.97;;
55756;SDS011;41676;44.610;44.078;2023-04-24T16:19:42;40.60;;;5.38;;
55756;SDS011;41676;44.610;44.078;2023-04-24T16:24:42;20.05;;;4.43;;
55756;SDS011;41676;44.610;44.078;2023-04-24T16:29:46;27.83;;;4.20;;
55756;SDS011;41676;44.610;44.078;2023-04-24T16:34:46;34.92;;;8.20;;
55756;SDS011;41676;44.610;44.078;2023-04-24T16:39:47;29.98;;;4.63;;
55756;SDS011;41676;44.610;44.078;2023-04-24T16:44:48;26.58;;;7.68;;
55756;SDS011;41676;44.610;44.078;2023-04-24T16:49:49;41.20;;;13.40;;
55756;SDS011;41676;44.610;44.078;2023-04-24T16:54:50;57.50;;;20.42;;
55756;SDS011;41676;44.610;44.078;2023-04-24T16:59:50;52.63;;;14.63;;
55756;SDS011;41676;44.610;44.078;2023-04-24T17:04:51;26.73;;;6.93;;
55756;SDS011;41676;44.610;44.078;2023-04-24T17:09:52;38.53;;;7.57;;
55756;SDS011;41676;44.610;44.078;2023-04-24T17:14:52;30.83;;;7.35;;
55756;SDS011;41676;44.610;44.078;2023-04-24T17:19:53;103.30;;;26.70;;
55756;SDS011;41676;44.610;44.078;2023-04-24T17:24:54;30.13;;;10.63;;
55756;SDS011;41676;44.610;44.078;2023-04-24T17:29:55;51.30;;;16.73;;
55756;SDS011;41676;44.610;44.078;2023-04-24T17:34:56;43.53;;;14.27;;
55756;SDS011;41676;44.610;44.078;2023-04-24T17:39:56;46.78;;;14.63;;
55756;SDS011;41676;44.610;44.078;2023-04-24T17:44:57;40.13;;;14.38;;
55756;SDS011;41676;44.610;44.078;2023-04-24T17:49:58;44.42;;;13.85;;
55756;SDS011;41676;44.610;44.078;2023-04-24T17:54:59;48.08;;;14.73;;
55756;SDS011;41676;44.610;44.078;2023-04-24T18:00:00;55.05;;;15.93;;
55756;SDS011;41676;44.610;44.078;2023-04-24T18:05:01;85.78;;;33.50;;
55756;SDS011;41676;44.610;44.078;2023-04-24T18:10:01;90.45;;;36.80;;
55756;SDS011;41676;44.610;44.078;2023-04-24T18:15:02;66.22;;;27.02;;
55756;SDS011;41676;44.610;44.078;2023-04-24T18:20:04;54.88;;;24.23;;
55756;SDS011;41676;44.610;44.078;2023-04-24T18:25:06;51.58;;;20.58;;
55756;SDS011;41676;44.610;44.078;2023-04-24T18:30:07;42.53;;;16.55;;
55756;SDS011;41676;44.610;44.078;2023-04-24T18:35:10;42.73;;;18.13;;
55756;SDS011;41676;44.610;44.078;2023-04-24T18:40:13;41.85;;;15.05;;
55756;SDS011;41676;44.610;44.078;2023-04-24T18:45:14;37.20;;;14.52;;
55756;SDS011;41676;44.610;44.078;2023-04-24T18:50:15;34.17;;;11.82;;
55756;SDS011;41676;44.610;44.078;2023-04-24T18:55:16;31.38;;;12.07;;
55756;SDS011;41676;44.610;44.078;2023-04-24T19:00:17;26.08;;;10.38;;
55756;SDS011;41676;44.610;44.078;2023-04-24T19:05:18;28.35;;;8.32;;
55756;SDS011;41676;44.610;44.078;2023-04-24T19:10:18;24.00;;;7.00;;
55756;SDS011;41676;44.610;44.078;2023-04-24T19:15:19;20.58;;;6.45;;
55756;SDS011;41676;44.610;44.078;2023-04-24T19:20:20;16.45;;;5.20;;
55756;SDS011;41676;44.610;44.078;2023-04-24T19:25:21;30.33;;;6.25;;
55756;SDS011;41676;44.610;44.078;2023-04-24T19:30:22;21.17;;;6.28;;
55756;SDS011;41676;44.610;44.078;2023-04-24T19:35:22;29.40;;;6.07;;
55756;SDS011;41676;44.610;44.078;2023-04-24T19:40:23;22.55;;;6.18;;
55756;SDS011;41676;44.610;44.078;2023-04-24T19:45:24;16.00;;;5.97;;
55756;SDS011;41676;44.610;44.078;2023-04-24T19:50:25;20.88;;;5.53;;
55756;SDS011;41676;44.610;44.078;2023-04-24T19:55:26;21.17;;;6.47;;
55756;SDS011;41676;44.610;44.078;2023-04-24T20:00:27;25.67;;;8.00;;
55756;SDS011;41676;44.610;44.078;2023-04-24T20:05:28;23.50;;;10.00;;
55756;SDS011;41676;44.610;44.078;2023-04-24T20:10:29;26.17;;;9.48;;
55756;SDS011;41676;44.610;44.078;2023-04-24T20:15:30;26.05;;;7.53;;
55756;SDS011;41676;44.610;44.078;2023-04-24T20:20:32;21.30;;;5.40;;
55756;SDS011;41676;44.610;44.078;2023-04-24T20:25:33;16.13;;;5.13;;
55756;SDS011;41676;44.610;44.078;2023-04-24T20:30:35;18.75;;;4.95;;
55756;SDS011;41676;44.610;44.078;2023-04-24T20:35:37;24.67;;;4.88;;
55756;SDS011;41676;44.610;44.078;2023-04-24T20:40:38;31.25;;;5.57;;
55756;SDS011;41676;44.610;44.078;2023-04-24T20:45:39;23.00;;;4.40;;
55756;SDS011;41676;44.610;44.078;2023-04-24T20:50:40;23.83;;;4.78;;
55756;SDS011;41676;44.610;44.078;2023-04-24T20:55:42;34.22;;;4.15;;
55756;SDS011;41676;44.610;44.078;2023-04-24T21:00:42;16.90;;;3.92;;
55756;SDS011;41676;44.610;44.078;2023-04-24T21:05:44;20.80;;;4.10;;
55756;SDS011;41676;44.610;44.078;2023-04-24T21:10:45;15.80;;;3.90;;
55756;SDS011;41676;44.610;44.078;2023-04-24T21:15:46;19.27;;;3.45;;
55756;SDS011;41676;44.610;44.078;2023-04-24T21:20:47;19.88;;;3.88;;
55756;SDS011;41676;44.610;44.078;2023-04-24T21:25:49;22.15;;;4.30;;
55756;SDS011;41676;44.610;44.078;2023-04-24T21:30:50;21.33;;;3.38;;
55756;SDS011;41676;44.610;44.078;2023-04-24T21:35:51;19.52;;;4.15;;
55756;SDS011;41676;44.610;44.078;2023-04-24T21:40:52;18.83;;;3.10;;
55756;SDS011;41676;44.610;44.078;2023-04-24T21:45:52;16.70;;;3.25;;
55756;SDS011;41676;44.610;44.078;2023-04-24T21:50:54;10.23;;;3.53;;
55756;SDS011;41676;44.610;44.078;2023-04-24T21:55:55;10.10;;;3.30;;
55756;SDS011;41676;44.610;44.078;2023-04-24T22:00:56;14.93;;;3.85;;
55756;SDS011;41676;44.610;44.078;2023-04-24T22:05:57;9.38;;;3.28;;
55756;SDS011;41676;44.610;44.078;2023-04-24T22:10:58;12.23;;;4.07;;
55756;SDS011;41676;44.610;44.078;2023-04-24T22:15:58;7.63;;;3.40;;
55756;SDS011;41676;44.610;44.078;2023-04-24T22:20:59;9.55;;;3.33;;
55756;SDS011;41676;44.610;44.078;2023-04-24T22:26:00;9.02;;;4.10;;
55756;SDS011;41676;44.610;44.078;2023-04-24T22:31:01;8.35;;;4.28;;
55756;SDS011;41676;44.610;44.078;2023-04-24T22:36:02;10.48;;;4.70;;
55756;SDS011;41676;44.610;44.078;2023-04-24T22:41:03;10.75;;;4.50;;
55756;SDS011;41676;44.610;44.078;2023-04-24T22:46:03;14.10;;;4.13;;
55756;SDS011;41676;44.610;44.078;2023-04-24T22:51:04;8.65;;;3.85;;
55756;SDS011;41676;44.610;44.078;2023-04-24T22:56:05;8.60;;;3.75;;
55756;SDS011;41676;44.610;44.078;2023-04-24T23:01:06;9.50;;;3.53;;
55756;SDS011;41676;44.610;44.078;2023-04-24T23:06:07;7.00;;;3.40;;
55756;SDS011;41676;44.610;44.078;2023-04-24T23:11:08;10.15;;;2.95;;
55756;SDS011;41676;44.610;44.078;2023-04-24T23:16:10;5.47;;;3.38;;
55756;SDS011;41676;44.610;44.078;2023-04-24T23:21:11;5.95;;;3.40;;
55756;SDS011;41676;44.610;44.078;2023-04-24T23:26:12;7.20;;;4.13;;
55756;SDS011;41676;44.610;44.078;2023-04-24T23:31:12;7.45;;;4.30;;
55756;SDS011;41676;44.610;44.078;2023-04-24T23:36:13;7.97;;;5.22;;
55756;SDS011;41676;44.610;44.078;2023-04-24T23:41:14;7.05;;;5.47;;
55756;SDS011;41676;44.610;44.078;2023-04-24T23:46:15;12.70;;;8.18;;
55756;SDS011;41676;44.610;44.078;2023-04-24T23:51:16;17.77;;;10.27;;
55756;SDS011;41676;44.610;44.078;2023-04-24T23:56:17;13.20;;;10.02;;
